Time;durP1;ratioP1;P1;durP2;ratioP2;P2;SDS_P1;SDS_P2;PMS_P1;PMS_P2;Temp;Humidity;BMP_temperature;BMP_pressure;BME280_temperature;BME280_humidity;BME280_pressure;Samples;Min_cycle;Max_cycle;Signal;HPM_P1;HPM_P2
2021/04/02 00:01:27;;;;;;;;;;;;;;;7.88;73.08;101018.70;1868623;77;21196;-78
2021/04/02 00:03:55;;;;;;;;;;;;;;;7.86;72.95;101011.01;1868558;77;20106;-78
2021/04/02 00:06:23;;;;;;;;;;;;;;;7.84;72.92;101002.50;1868229;77;20146;-76
2021/04/02 00:08:51;;;;;;;;;;;;;;;7.81;72.95;101003.95;1868679;77;20134;-77
2021/04/02 00:11:18;;;;;;;;;;;;;;;7.77;73.01;100996.41;1869351;77;20150;-78
2021/04/02 00:13:47;;;;;;;;;;;;;;;7.75;73.00;100990.05;1869097;76;21190;-76
2021/04/02 00:16:17;;;;;;;;;;;;;;;7.72;72.98;100990.16;1868288;77;20138;-76
2021/04/02 00:18:45;;;;;;;;;;;;;;;7.70;72.98;100984.25;1868981;77;20146;-76
2021/04/02 00:21:15;;;;;;;;;;;;;;;7.67;73.01;100988.73;1868288;77;21069;-77
2021/04/02 00:23:43;;;;;;;;;;;;;;;7.67;73.07;100983.11;1867994;77;20241;-76
2021/04/02 00:26:16;;;;;;;;;;;;;;;7.65;73.08;100979.78;1868576;77;21199;-77
2021/04/02 00:28:45;;;;;;;;;;;;;;;7.64;73.08;100978.55;1868749;77;20487;-75
2021/04/02 00:31:13;;;;;;;;;;;;;;;7.62;73.15;100981.22;1868119;77;20110;-75
2021/04/02 00:33:41;;;;;;;;;;;;;;;7.62;73.10;100982.52;1867939;77;20130;-75
2021/04/02 00:36:08;;;;;;;;;;;;;;;7.59;73.08;100977.50;1868210;77;20122;-76
2021/04/02 00:38:36;;;;;;;;;;;;;;;7.55;73.12;100981.12;1868198;77;21263;-77
2021/04/02 00:41:12;;;;;;;;;;;;;;;7.54;73.14;100967.83;1868183;77;20498;-79
2021/04/02 00:43:47;;;;;;;;;;;;;;;7.53;73.15;100958.39;1868198;76;20134;-77
2021/04/02 00:46:15;;;;;;;;;;;;;;;7.54;73.22;100953.62;1868578;77;20106;-76
2021/04/02 00:48:44;;;;;;;;;;;;;;;7.53;73.23;100949.84;1868238;77;20146;-80
2021/04/02 00:51:24;;;;;;;;;;;;;;;7.51;73.18;100943.45;1868368;77;21133;-76
2021/04/02 00:53:52;;;;;;;;;;;;;;;7.51;73.14;100945.19;1868359;77;20493;-75
2021/04/02 00:56:19;;;;;;;;;;;;;;;7.49;73.11;100945.73;1868245;77;20205;-77
2021/04/02 00:58:47;;;;;;;;;;;;;;;7.49;73.10;100939.27;1868041;77;20221;-76
2021/04/02 01:01:15;;;;;;;;;;;;;;;7.48;73.03;100933.72;1868527;77;20204;-75
2021/04/02 01:03:43;;;;;;;;;;;;;;;7.48;72.94;100931.98;1868048;77;21263;-78
2021/04/02 01:06:17;;;;;;;;;;;;;;;7.48;72.87;100933.27;1868002;76;20190;-76
2021/04/02 01:08:45;;;;;;;;;;;;;;;7.48;72.77;100929.39;1868846;77;20288;-78
2021/04/02 07:07:18;;;;;;;;;;;;;;;12.17;53.90;100616.70;1869212;77;20201;-80
2021/04/02 07:09:46;;;;;;;;;;;;;;;12.39;51.97;100621.61;1869166;76;20130;-77
2021/04/02 07:12:14;;;;;;;;;;;;;;;12.56;52.03;100610.78;1870343;76;20153;-81
2021/04/02 07:14:45;;;;;;;;;;;;;;;12.74;50.64;100606.78;1845293;77;20160;-80
2021/04/02 07:17:14;;;;;;;;;;;;;;;12.93;48.13;100601.00;1834349;77;21355;-80
2021/04/02 07:19:42;;;;;;;;;;;;;;;13.10;48.76;100601.88;1834844;78;20216;-75
2021/04/02 07:22:10;;;;;;;;;;;;;;;13.19;48.85;100605.08;1835369;78;20231;-81
2021/04/02 07:24:38;;;;;;;;;;;;;;;13.29;47.77;100609.92;1834583;77;20211;-76
2021/04/02 07:27:21;;;;;;;;;;;;;;;13.39;47.60;100609.57;1838923;77;20208;-78
2021/04/02 07:29:57;;;;;;;;;;;;;;;13.51;47.97;100604.69;1855647;77;21269;-80
2021/04/02 07:32:32;;;;;;;;;;;;;;;13.69;46.25;100608.91;1865248;76;20158;-81
2021/04/02 07:35:12;;;;;;;;;;;;;;;13.88;45.45;100607.78;1865613;77;20224;-78
2021/04/02 07:37:40;;;;;;;;;;;;;;;14.06;45.10;100602.87;1865205;77;20777;-77
2021/04/02 07:40:09;;;;;;;;;;;;;;;14.19;44.99;100603.06;1866234;76;20214;-78
2021/04/02 07:42:37;;;;;;;;;;;;;;;14.28;44.84;100594.47;1865608;77;21190;-81
2021/04/02 07:45:06;;;;;;;;;;;;;;;14.35;44.88;100594.00;1865203;77;20229;-77
2021/04/02 07:47:34;;;;;;;;;;;;;;;14.45;44.40;100590.98;1866300;77;20138;-79
2021/04/02 07:50:02;;;;;;;;;;;;;;;14.55;44.33;100593.18;1865596;76;20276;-81
2021/04/02 07:52:39;;;;;;;;;;;;;;;14.65;43.98;100592.73;1865842;76;20253;-81
2021/04/02 07:55:16;;;;;;;;;;;;;;;14.72;43.60;100575.59;1865874;76;22184;-76
2021/04/02 07:57:55;;;;;;;;;;;;;;;14.75;43.47;100581.39;1865422;76;20371;-82
2021/04/02 08:00:30;;;;;;;;;;;;;;;14.82;43.32;100572.56;1865704;76;20209;-76
2021/04/02 08:03:08;;;;;;;;;;;;;;;14.86;43.46;100573.13;1839125;77;20500;-80
2021/04/02 08:05:35;;;;;;;;;;;;;;;14.95;43.54;100582.31;1865562;76;20221;-78
2021/04/02 08:08:08;;;;;;;;;;;;;;;15.07;43.22;100581.26;1865705;77;21181;-79
2021/04/02 08:10:37;;;;;;;;;;;;;;;15.06;42.82;100582.21;1842775;76;20235;-73
2021/04/02 08:13:18;;;;;;;;;;;;;;;15.06;42.88;100573.56;1858917;77;20161;-85
2021/04/02 08:16:35;;;;;;;;;;;;;;;15.09;43.09;100576.72;1829581;77;20304;-80
2021/04/02 08:19:09;;;;;;;;;;;;;;;15.21;42.96;100570.93;1813580;79;20315;-75
2021/04/02 08:21:40;;;;;;;;;;;;;;;15.31;42.75;100570.02;1796693;78;21354;-73
2021/04/02 08:24:10;;;;;;;;;;;;;;;15.42;42.71;100571.67;1828884;78;20226;-77
2021/04/02 08:26:39;;;;;;;;;;;;;;;15.51;42.62;100563.55;1829724;78;20254;-80
2021/04/02 08:29:08;;;;;;;;;;;;;;;15.61;42.75;100563.89;1829845;78;20603;-77
2021/04/02 08:31:40;;;;;;;;;;;;;;;15.69;42.09;100561.44;1830183;78;20510;-79
2021/04/02 08:34:11;;;;;;;;;;;;;;;15.72;42.05;100570.32;1834400;77;21191;-84
2021/04/02 08:36:43;;;;;;;;;;;;;;;15.77;42.62;100564.66;1827498;77;20587;-74
2021/04/02 08:39:11;;;;;;;;;;;;;;;15.95;42.54;100566.97;1789100;79;20216;-74
2021/04/02 08:41:42;;;;;;;;;;;;;;;16.24;42.36;100576.11;1800464;78;20140;-79
2021/04/02 08:44:13;;;;;;;;;;;;;;;16.55;41.08;100568.44;1826008;78;20283;-76
2021/04/02 08:46:43;;;;;;;;;;;;;;;16.79;39.81;100573.17;1848432;76;21647;-74
2021/04/02 08:49:13;;;;;;;;;;;;;;;16.83;39.80;100573.24;1848290;76;20312;-74
2021/04/02 08:51:51;;;;;;;;;;;;;;;16.91;39.81;100575.48;1845314;77;20195;-81
2021/04/02 08:54:24;;;;;;;;;;;;;;;17.09;39.91;100575.56;1843926;78;20195;-75
2021/04/02 08:57:01;;;;;;;;;;;;;;;17.16;39.57;100562.22;1844033;78;20219;-83
2021/04/02 08:59:39;;;;;;;;;;;;;;;17.24;39.57;100560.16;1843953;77;21199;-76
2021/04/02 09:02:07;;;;;;;;;;;;;;;17.26;39.20;100563.48;1843878;78;20319;-78
2021/04/02 09:04:36;;;;;;;;;;;;;;;17.25;39.16;100563.13;1843693;77;20136;-76
2021/04/02 09:07:05;;;;;;;;;;;;;;;17.29;39.09;100561.36;1843416;77;20293;-77
2021/04/02 09:09:32;;;;;;;;;;;;;;;17.33;39.32;100545.67;1845116;76;20247;-75
2021/04/02 09:12:13;;;;;;;;;;;;;;;17.44;38.75;100544.66;1858503;76;21238;-79
2021/04/02 09:14:51;;;;;;;;;;;;;;;17.48;39.10;100549.13;1851045;76;20154;-74
2021/04/02 09:17:27;;;;;;;;;;;;;;;17.54;38.88;100550.67;1861820;77;20229;-81
2021/04/02 09:19:56;;;;;;;;;;;;;;;17.60;39.27;100542.23;1854968;77;20850;-74
2021/04/02 09:22:24;;;;;;;;;;;;;;;17.68;39.69;100537.05;1852211;76;20511;-76
2021/04/02 09:24:54;;;;;;;;;;;;;;;17.85;39.46;100538.86;1848096;76;21194;-82
2021/04/02 09:27:23;;;;;;;;;;;;;;;17.92;39.02;100528.58;1843585;78;37720;-76
2021/04/02 09:29:56;;;;;;;;;;;;;;;17.94;39.12;100523.98;1842919;78;20123;-80
2021/04/02 09:32:27;;;;;;;;;;;;;;;17.99;38.68;100529.63;1843593;77;20219;-78
2021/04/02 09:34:57;;;;;;;;;;;;;;;17.85;38.75;100531.47;1843279;78;20275;-75
2021/04/02 09:37:28;;;;;;;;;;;;;;;17.77;39.54;100520.39;1843704;78;21184;-75
2021/04/02 09:40:01;;;;;;;;;;;;;;;17.80;39.52;100528.00;1835464;76;20575;-75
2021/04/02 09:42:30;;;;;;;;;;;;;;;17.79;39.49;100550.44;1877977;76;20221;-76
2021/04/02 09:45:08;;;;;;;;;;;;;;;17.70;39.94;100541.67;1830966;78;20948;-77
2021/04/02 09:47:47;;;;;;;;;;;;;;;17.70;39.66;100542.99;1811497;79;20220;-76
2021/04/02 09:50:19;;;;;;;;;;;;;;;17.70;39.59;100532.49;1819760;77;21193;-80
2021/04/02 09:52:46;;;;;;;;;;;;;;;17.68;39.66;100550.17;1827456;77;20211;-80
2021/04/02 09:55:15;;;;;;;;;;;;;;;17.53;40.16;100548.17;1812365;78;20211;-76
2021/04/02 09:57:43;;;;;;;;;;;;;;;17.43;40.61;100553.01;1837146;77;20823;-76
2021/04/02 10:00:13;;;;;;;;;;;;;;;17.40;40.88;100543.29;1820977;77;20209;-77
2021/04/02 10:02:41;;;;;;;;;;;;;;;17.42;40.97;100542.67;1820097;77;22131;-73
2021/04/02 10:05:11;;;;;;;;;;;;;;;17.71;40.57;100547.24;1813334;77;20136;-76
2021/04/02 10:07:42;;;;;;;;;;;;;;;18.11;39.44;100546.79;1817246;77;20152;-76
2021/04/02 10:10:12;;;;;;;;;;;;;;;18.23;38.86;100556.07;1825934;77;20698;-77
2021/04/02 10:12:41;;;;;;;;;;;;;;;18.09;38.79;100541.36;1812161;79;20255;-72
2021/04/02 10:15:25;;;;;;;;;;;;;;;18.10;39.13;100537.73;1829500;77;21610;-73
2021/04/02 10:17:55;;;;;;;;;;;;;;;18.32;38.60;100533.30;1810646;78;20326;-73
2021/04/02 10:20:24;;;;;;;;;;;;;;;19.04;37.75;100528.97;1833264;77;20269;-77
2021/04/02 10:22:53;;;;;;;;;;;;;;;20.00;35.80;100527.05;1845188;77;20522;-79
2021/04/02 10:25:22;;;;;;;;;;;;;;;20.66;34.95;100519.39;1845090;77;20316;-75
2021/04/02 10:27:50;;;;;;;;;;;;;;;21.27;33.77;100518.67;1830302;77;21180;-76
2021/04/02 10:30:19;;;;;;;;;;;;;;;21.26;33.68;100523.62;1845152;77;20240;-74
2021/04/02 10:32:48;;;;;;;;;;;;;;;20.87;33.68;100519.64;1819295;77;20231;-77
2021/04/02 10:35:18;;;;;;;;;;;;;;;20.41;34.56;100508.58;1814188;77;20216;-76
2021/04/02 10:37:47;;;;;;;;;;;;;;;20.05;35.20;100501.02;1812536;79;20240;-76
2021/04/02 10:40:16;;;;;;;;;;;;;;;19.54;36.16;100502.66;1812594;78;21141;-76
2021/04/02 10:42:45;;;;;;;;;;;;;;;19.14;37.24;100501.23;1820050;77;20350;-74
2021/04/02 10:45:15;;;;;;;;;;;;;;;18.75;38.26;100500.42;1850834;76;20192;-77
2021/04/02 10:47:47;;;;;;;;;;;;;;;18.41;39.18;100499.05;1879330;76;20205;-77
2021/04/02 10:50:17;;;;;;;;;;;;;;;18.20;39.90;100502.53;1877983;76;20280;-77
2021/04/02 10:52:46;;;;;;;;;;;;;;;17.89;41.08;100509.19;1879007;76;21199;-76
2021/04/02 10:55:14;;;;;;;;;;;;;;;17.30;42.71;100513.67;1878977;76;20245;-74
2021/04/02 10:57:43;;;;;;;;;;;;;;;17.18;43.11;100508.30;1878525;76;20506;-72
2021/04/02 11:00:12;;;;;;;;;;;;;;;17.44;42.96;100501.37;1878643;76;20205;-78
2021/04/02 11:02:40;;;;;;;;;;;;;;;17.94;42.38;100486.75;1878789;76;20253;-75
2021/04/02 11:05:09;;;;;;;;;;;;;;;18.28;41.37;100497.31;1880024;76;21319;-75
2021/04/02 11:07:38;;;;;;;;;;;;;;;18.23;40.75;100501.39;1880196;76;20265;-76
2021/04/02 11:10:09;;;;;;;;;;;;;;;18.26;40.88;100488.78;1879906;76;20228;-77
2021/04/02 11:12:39;;;;;;;;;;;;;;;18.71;40.19;100483.80;1880459;76;20189;-74
2021/04/02 11:15:12;;;;;;;;;;;;;;;19.11;39.11;100489.22;1880473;76;20220;-73
2021/04/02 11:17:41;;;;;;;;;;;;;;;19.32;38.75;100483.02;1880554;76;21183;-78
2021/04/02 11:20:10;;;;;;;;;;;;;;;19.67;37.87;100487.20;1880584;76;20181;-76
2021/04/02 11:22:39;;;;;;;;;;;;;;;19.86;37.60;100496.09;1879934;76;20213;-79
2021/04/02 11:25:09;;;;;;;;;;;;;;;19.78;37.59;100502.69;1879911;76;21033;-80
2021/04/02 11:27:40;;;;;;;;;;;;;;;19.56;38.09;100495.92;1880860;76;20227;-74
2021/04/02 11:30:11;;;;;;;;;;;;;;;19.31;38.99;100487.94;1880559;76;21252;-75
2021/04/02 11:32:39;;;;;;;;;;;;;;;19.52;39.17;100489.67;1879758;76;20125;-76
2021/04/02 11:35:11;;;;;;;;;;;;;;;19.61;39.29;100479.13;1878723;76;20200;-77
2021/04/02 11:37:42;;;;;;;;;;;;;;;19.25;40.32;100493.02;1878973;76;21874;-73
2021/04/02 11:40:13;;;;;;;;;;;;;;;18.83;42.29;100489.09;1878504;76;20610;-76
2021/04/02 11:42:41;;;;;;;;;;;;;;;18.61;43.42;100475.20;1878807;76;21190;-78
2021/04/02 11:45:11;;;;;;;;;;;;;;;18.68;44.10;100476.23;1878620;76;20468;-76
2021/04/02 11:47:39;;;;;;;;;;;;;;;18.63;44.26;100470.63;1847306;76;20248;-77
2021/04/02 11:50:08;;;;;;;;;;;;;;;18.65;44.79;100464.23;1878825;76;20244;-78
2021/04/02 11:52:37;;;;;;;;;;;;;;;18.59;45.33;100456.98;1878752;76;20199;-80
2021/04/02 11:55:06;;;;;;;;;;;;;;;19.18;44.84;100461.76;1878872;76;21252;-72
2021/04/02 11:57:34;;;;;;;;;;;;;;;19.47;43.73;100451.64;1878584;76;20237;-82
2021/04/02 12:00:08;;;;;;;;;;;;;;;19.64;43.64;100449.36;1878379;76;20216;-80
2021/04/02 12:02:37;;;;;;;;;;;;;;;19.92;42.89;100451.14;1878671;76;20205;-76
2021/04/02 12:05:06;;;;;;;;;;;;;;;19.64;43.31;100449.36;1878515;76;20256;-75
2021/04/02 12:07:35;;;;;;;;;;;;;;;19.33;44.00;100448.33;1878224;76;21197;-74
2021/04/02 12:10:05;;;;;;;;;;;;;;;19.00;44.73;100446.94;1878883;76;20181;-74
2021/04/02 12:12:34;;;;;;;;;;;;;;;18.84;45.32;100442.11;1879391;76;20232;-75
2021/04/02 12:15:04;;;;;;;;;;;;;;;18.72;45.55;100446.02;1878902;76;20231;-74
2021/04/02 12:17:32;;;;;;;;;;;;;;;18.63;45.95;100445.66;1879047;76;20228;-75
2021/04/02 12:20:03;;;;;;;;;;;;;;;18.62;45.78;100440.06;1878715;76;21194;-77
2021/04/02 12:22:31;;;;;;;;;;;;;;;18.68;45.34;100448.62;1878304;76;20607;-74
2021/04/02 12:24:59;;;;;;;;;;;;;;;18.72;45.82;100437.65;1878372;76;20126;-76
2021/04/02 12:27:27;;;;;;;;;;;;;;;18.85;44.81;100428.00;1878017;76;20176;-79
2021/04/02 12:29:55;;;;;;;;;;;;;;;18.82;44.53;100429.14;1878519;76;20487;-74
2021/04/02 12:32:25;;;;;;;;;;;;;;;18.69;44.62;100426.63;1878377;76;22190;-77
2021/04/02 12:34:54;;;;;;;;;;;;;;;18.57;44.52;100425.27;1851448;76;20225;-77
2021/04/02 12:37:24;;;;;;;;;;;;;;;18.66;44.13;100426.95;1842486;77;20247;-76
2021/04/02 12:39:52;;;;;;;;;;;;;;;19.22;42.82;100414.42;1825467;78;20739;-76
2021/04/02 12:42:21;;;;;;;;;;;;;;;20.09;40.74;100419.85;1843257;78;20209;-81
2021/04/02 12:44:50;;;;;;;;;;;;;;;20.68;39.85;100413.23;1843859;76;21369;-77
2021/04/02 12:47:17;;;;;;;;;;;;;;;21.31;38.29;100414.39;1843608;77;20492;-80
2021/04/02 12:49:46;;;;;;;;;;;;;;;21.91;36.70;100418.86;1843834;78;20221;-75
2021/04/02 12:52:15;;;;;;;;;;;;;;;21.88;35.40;100413.41;1843819;78;20264;-76
2021/04/02 12:54:44;;;;;;;;;;;;;;;21.48;36.54;100397.41;1843706;78;20287;-76
2021/04/02 12:57:12;;;;;;;;;;;;;;;21.19;36.88;100403.11;1844256;78;21624;-75
2021/04/02 12:59:40;;;;;;;;;;;;;;;20.95;37.24;100408.00;1843811;76;20320;-77
2021/04/02 13:02:14;;;;;;;;;;;;;;;21.31;37.25;100401.69;1843869;76;20169;-77
2021/04/02 13:04:45;;;;;;;;;;;;;;;22.05;35.47;100393.76;1844159;78;20767;-77
2021/04/02 13:07:14;;;;;;;;;;;;;;;22.26;35.02;100401.47;1844369;78;20272;-79
2021/04/02 13:09:42;;;;;;;;;;;;;;;22.03;35.13;100389.16;1843980;77;21186;-79
2021/04/02 13:12:10;;;;;;;;;;;;;;;21.67;36.06;100389.98;1844342;78;20302;-78
2021/04/02 13:14:43;;;;;;;;;;;;;;;21.42;36.49;100388.88;1843846;77;20130;-79
2021/04/02 13:17:11;;;;;;;;;;;;;;;21.16;37.12;100385.78;1844739;78;20965;-76
2021/04/02 13:19:39;;;;;;;;;;;;;;;20.95;37.22;100386.89;1844677;78;20221;-77
2021/04/02 13:22:09;;;;;;;;;;;;;;;20.70;37.53;100399.41;1844869;78;21190;-80
2021/04/02 13:24:38;;;;;;;;;;;;;;;20.36;38.16;100396.23;1845837;78;20115;-77
2021/04/02 13:27:08;;;;;;;;;;;;;;;20.11;38.61;100394.64;1844726;77;20153;-73
2021/04/02 13:29:36;;;;;;;;;;;;;;;20.00;39.00;100404.57;1844720;78;20890;-74
2021/04/02 13:32:06;;;;;;;;;;;;;;;19.93;39.20;100406.22;1844464;77;20225;-73
2021/04/02 13:34:34;;;;;;;;;;;;;;;19.89;39.27;100405.39;1843688;78;21187;-77
2021/04/02 13:37:02;;;;;;;;;;;;;;;19.67;39.75;100403.45;1843453;77;20198;-74
2021/04/02 13:39:31;;;;;;;;;;;;;;;19.47;40.32;100406.41;1843769;78;20197;-74
2021/04/02 13:41:58;;;;;;;;;;;;;;;19.50;40.54;100399.98;1843806;78;20225;-74
2021/04/02 13:44:26;;;;;;;;;;;;;;;19.45;40.77;100392.61;1844087;77;20284;-74
2021/04/02 13:46:54;;;;;;;;;;;;;;;19.41;40.79;100391.28;1842982;77;21260;-75
2021/04/02 13:49:22;;;;;;;;;;;;;;;19.27;40.87;100400.30;1842733;78;20221;-74
2021/04/02 13:51:50;;;;;;;;;;;;;;;19.07;41.09;100394.52;1842609;78;20233;-74
2021/04/02 13:54:17;;;;;;;;;;;;;;;18.83;41.71;100394.45;1843087;78;20240;-78
2021/04/02 13:56:47;;;;;;;;;;;;;;;18.76;42.12;100396.09;1830692;77;20614;-75
2021/04/02 13:59:15;;;;;;;;;;;;;;;18.80;42.09;100389.02;1866119;77;21190;-80
2021/04/02 14:01:44;;;;;;;;;;;;;;;18.89;41.83;100388.05;1866074;77;20233;-73
2021/04/02 14:04:12;;;;;;;;;;;;;;;18.90;41.81;100392.83;1866912;77;20227;-76
2021/04/02 14:06:39;;;;;;;;;;;;;;;18.79;42.15;100393.14;1866194;77;20229;-76
2021/04/02 14:09:08;;;;;;;;;;;;;;;18.62;42.67;100394.89;1865882;77;20220;-79
2021/04/02 14:11:37;;;;;;;;;;;;;;;18.56;42.75;100389.45;1866072;76;20118;-75
2021/04/02 14:14:06;;;;;;;;;;;;;;;18.48;42.86;100398.91;1865330;76;20141;-75
2021/04/02 14:16:33;;;;;;;;;;;;;;;18.45;43.00;100393.14;1865608;77;20225;-80
2021/04/02 14:19:01;;;;;;;;;;;;;;;18.44;43.13;100388.38;1866274;77;20758;-80
2021/04/02 14:21:31;;;;;;;;;;;;;;;18.32;43.24;100392.75;1866063;77;20225;-79
2021/04/02 14:24:00;;;;;;;;;;;;;;;18.13;43.62;100392.50;1865464;77;21190;-77
2021/04/02 14:26:28;;;;;;;;;;;;;;;17.96;44.12;100396.03;1865505;77;20115;-79
2021/04/02 14:28:56;;;;;;;;;;;;;;;17.80;44.66;100394.61;1865668;77;20209;-76
2021/04/02 14:31:24;;;;;;;;;;;;;;;17.67;45.08;100399.44;1865852;76;20431;-76
2021/04/02 14:33:52;;;;;;;;;;;;;;;17.57;45.26;100406.09;1865442;77;20209;-81
2021/04/02 14:36:22;;;;;;;;;;;;;;;17.45;45.82;100405.45;1865302;76;21187;-77
2021/04/02 14:38:50;;;;;;;;;;;;;;;17.35;46.23;100404.73;1865376;77;20218;-77
2021/04/02 14:41:18;;;;;;;;;;;;;;;17.23;46.53;100406.42;1867572;77;20194;-75
2021/04/02 14:43:47;;;;;;;;;;;;;;;17.03;48.59;100398.34;1867763;77;20296;-78
2021/04/02 14:46:15;;;;;;;;;;;;;;;16.48;51.93;100402.77;1866436;77;20256;-75
2021/04/02 14:48:43;;;;;;;;;;;;;;;15.71;55.33;100413.00;1868023;77;21353;-74
2021/04/02 14:51:11;;;;;;;;;;;;;;;15.25;57.09;100406.33;1867799;77;20181;-74
2021/04/02 14:53:38;;;;;;;;;;;;;;;15.10;57.50;100411.11;1867573;77;20257;-74
2021/04/02 14:56:06;;;;;;;;;;;;;;;15.12;57.30;100409.20;1866797;77;20647;-73
2021/04/02 14:58:39;;;;;;;;;;;;;;;15.25;57.46;100417.58;1866900;77;20134;-74
2021/04/02 15:01:07;;;;;;;;;;;;;;;15.43;57.52;100416.43;1867372;77;21207;-74
2021/04/02 15:03:35;;;;;;;;;;;;;;;15.56;57.95;100418.80;1867490;77;20194;-74
2021/04/02 15:06:03;;;;;;;;;;;;;;;15.66;58.89;100419.62;1868070;76;20189;-77
2021/04/02 15:08:34;;;;;;;;;;;;;;;15.74;59.46;100424.97;1866291;77;20145;-75
2021/04/02 15:11:02;;;;;;;;;;;;;;;15.75;59.71;100426.14;1867062;77;20198;-77
2021/04/02 15:13:30;;;;;;;;;;;;;;;15.71;61.50;100423.94;1866617;77;21193;-78
2021/04/02 15:16:00;;;;;;;;;;;;;;;15.60;62.49;100430.13;1868084;77;20280;-75
2021/04/02 15:18:28;;;;;;;;;;;;;;;15.47;63.55;100429.58;1867462;77;20126;-76
2021/04/02 15:20:56;;;;;;;;;;;;;;;15.40;64.15;100441.55;1867103;77;20512;-75
2021/04/02 15:23:24;;;;;;;;;;;;;;;15.33;65.54;100453.52;1866648;77;20276;-77
2021/04/02 15:25:53;;;;;;;;;;;;;;;15.18;66.45;100449.17;1865754;76;22158;-78
2021/04/02 15:28:21;;;;;;;;;;;;;;;15.07;67.23;100449.75;1865767;77;20181;-76
2021/04/02 15:30:48;;;;;;;;;;;;;;;15.00;67.99;100456.47;1865549;77;20126;-76
2021/04/02 15:33:16;;;;;;;;;;;;;;;14.95;68.50;100451.66;1865638;77;20233;-75
2021/04/02 15:35:44;;;;;;;;;;;;;;;14.93;68.93;100454.91;1865522;77;20296;-76
2021/04/02 15:38:11;;;;;;;;;;;;;;;14.92;69.32;100455.86;1865513;77;21186;-75
2021/04/02 15:40:40;;;;;;;;;;;;;;;14.90;69.80;100468.20;1865622;77;20123;-77
2021/04/02 15:43:08;;;;;;;;;;;;;;;14.87;70.85;100479.43;1865438;77;20123;-81
2021/04/02 15:45:37;;;;;;;;;;;;;;;14.75;72.45;100475.59;1865510;77;20403;-80
2021/04/02 15:48:06;;;;;;;;;;;;;;;14.64;73.02;100482.24;1865378;76;20213;-73
2021/04/02 15:50:35;;;;;;;;;;;;;;;14.56;73.67;100479.91;1865154;77;21185;-81
2021/04/02 15:53:03;;;;;;;;;;;;;;;14.44;74.43;100482.27;1865705;77;20185;-80
2021/04/02 15:55:31;;;;;;;;;;;;;;;14.32;75.14;100493.25;1865742;76;20539;-80
2021/04/02 15:57:59;;;;;;;;;;;;;;;14.21;75.79;100490.70;1865381;77;20391;-81
2021/04/02 16:00:27;;;;;;;;;;;;;;;14.11;76.06;100493.72;1865542;77;20264;-75
2021/04/02 16:02:57;;;;;;;;;;;;;;;14.03;76.10;100507.42;1865318;77;21261;-83
2021/04/02 16:05:26;;;;;;;;;;;;;;;13.95;75.66;100506.38;1865565;77;20217;-79
2021/04/02 16:07:56;;;;;;;;;;;;;;;13.88;75.99;100513.88;1865937;76;20106;-78
2021/04/02 16:10:26;;;;;;;;;;;;;;;13.82;76.28;100514.85;1865381;77;20261;-78
2021/04/02 16:12:55;;;;;;;;;;;;;;;13.73;76.54;100522.48;1865948;77;20472;-82
2021/04/02 16:15:24;;;;;;;;;;;;;;;13.62;76.93;100534.28;1865626;77;21199;-79
2021/04/02 16:17:55;;;;;;;;;;;;;;;13.50;77.77;100542.23;1865407;77;20150;-81
2021/04/02 16:20:23;;;;;;;;;;;;;;;13.39;78.59;100546.18;1865802;77;20504;-81
2021/04/02 16:22:50;;;;;;;;;;;;;;;13.25;79.54;100562.42;1865271;77;20229;-78
2021/04/02 16:25:19;;;;;;;;;;;;;;;13.15;80.81;100573.68;1865330;77;20232;-78
2021/04/02 16:27:47;;;;;;;;;;;;;;;13.01;82.91;100582.56;1865558;77;22281;-76
2021/04/02 16:30:16;;;;;;;;;;;;;;;12.82;84.80;100578.41;1865642;77;20138;-81
2021/04/02 16:32:45;;;;;;;;;;;;;;;12.63;86.83;100580.28;1865711;77;20281;-74
2021/04/02 16:35:13;;;;;;;;;;;;;;;12.40;89.34;100576.44;1865273;77;20221;-74
2021/04/02 16:37:41;;;;;;;;;;;;;;;12.18;91.03;100585.02;1865583;77;20292;-78
2021/04/02 16:40:11;;;;;;;;;;;;;;;12.05;92.68;100588.98;1865424;77;21181;-74
2021/04/02 16:42:39;;;;;;;;;;;;;;;11.97;93.97;100591.77;1865434;77;20154;-75
2021/04/02 16:45:08;;;;;;;;;;;;;;;11.86;94.59;100593.03;1865731;77;20219;-72
2021/04/02 16:47:36;;;;;;;;;;;;;;;11.75;95.67;100601.59;1856850;77;20232;-77
2021/04/02 16:50:14;;;;;;;;;;;;;;;11.65;96.63;100597.95;1840581;78;20217;-75
2021/04/02 16:52:42;;;;;;;;;;;;;;;11.58;97.21;100596.76;1840603;77;21122;-78
2021/04/02 16:55:11;;;;;;;;;;;;;;;11.52;97.64;100590.66;1840726;77;20543;-74
2021/04/02 16:57:39;;;;;;;;;;;;;;;11.45;98.77;100590.77;1840784;77;20589;-76
2021/04/02 17:00:08;;;;;;;;;;;;;;;11.37;99.65;100597.79;1840500;78;20260;-74
2021/04/02 17:02:41;;;;;;;;;;;;;;;11.26;100.00;100594.30;1840829;78;20480;-76
2021/04/02 17:05:09;;;;;;;;;;;;;;;11.16;100.00;100598.00;1840846;77;20510;-73
2021/04/02 17:07:37;;;;;;;;;;;;;;;11.07;100.00;100600.73;1840472;77;20126;-76
2021/04/02 17:10:07;;;;;;;;;;;;;;;11.02;100.00;100604.13;1840620;78;20241;-75
2021/04/02 17:12:34;;;;;;;;;;;;;;;11.00;100.00;100611.67;1840986;78;20235;-75
2021/04/02 17:15:07;;;;;;;;;;;;;;;11.01;100.00;100618.51;1840685;77;20146;-74
2021/04/02 17:17:35;;;;;;;;;;;;;;;11.00;100.00;100608.61;1840843;77;22108;-74
2021/04/02 17:20:06;;;;;;;;;;;;;;;11.03;100.00;100621.84;1840695;78;20280;-75
2021/04/02 17:22:34;;;;;;;;;;;;;;;11.02;100.00;100628.80;1840401;77;20276;-75
2021/04/02 17:25:02;;;;;;;;;;;;;;;11.07;100.00;100632.40;1840569;78;20178;-74
2021/04/02 17:27:30;;;;;;;;;;;;;;;11.08;100.00;100636.17;1840676;78;20260;-75
2021/04/02 17:30:01;;;;;;;;;;;;;;;11.10;100.00;100636.08;1840619;77;21191;-73
2021/04/02 17:32:29;;;;;;;;;;;;;;;11.11;99.97;100638.55;1840581;77;20146;-76
2021/04/02 17:34:57;;;;;;;;;;;;;;;11.12;99.05;100644.13;1840372;78;20110;-76
2021/04/02 17:37:25;;;;;;;;;;;;;;;11.12;98.63;100646.72;1840453;78;20767;-77
2021/04/02 17:39:56;;;;;;;;;;;;;;;11.09;98.32;100647.39;1840645;77;20512;-75
2021/04/02 17:42:24;;;;;;;;;;;;;;;11.08;98.08;100654.35;1840655;77;22228;-78
2021/04/02 17:44:52;;;;;;;;;;;;;;;11.10;97.79;100655.56;1840326;77;20217;-76
2021/04/02 17:47:21;;;;;;;;;;;;;;;11.13;96.61;100652.75;1842741;77;20141;-76
2021/04/02 17:49:50;;;;;;;;;;;;;;;11.17;95.18;100655.48;1865324;77;20150;-73
2021/04/02 17:52:17;;;;;;;;;;;;;;;11.17;94.36;100648.19;1838499;77;20253;-73
2021/04/02 17:54:49;;;;;;;;;;;;;;;11.14;93.11;100656.52;1865121;77;21182;-76
2021/04/02 17:57:18;;;;;;;;;;;;;;;11.07;92.67;100659.17;1865104;76;20257;-76
2021/04/02 17:59:46;;;;;;;;;;;;;;;11.03;91.83;100669.42;1865528;77;20492;-78
2021/04/02 18:02:14;;;;;;;;;;;;;;;10.97;91.53;100669.84;1865340;77;20933;-80
2021/04/02 18:04:42;;;;;;;;;;;;;;;10.89;91.21;100664.31;1865296;77;20233;-77
2021/04/02 18:07:11;;;;;;;;;;;;;;;10.82;90.78;100667.41;1865166;77;21182;-79
2021/04/02 18:09:39;;;;;;;;;;;;;;;10.75;90.50;100668.32;1865253;77;20106;-74
2021/04/02 18:12:10;;;;;;;;;;;;;;;10.66;90.59;100665.50;1865391;77;20221;-77
2021/04/02 18:14:40;;;;;;;;;;;;;;;10.56;90.97;100667.87;1865225;77;20296;-76
2021/04/02 18:17:10;;;;;;;;;;;;;;;10.49;91.18;100671.34;1865332;77;20209;-75
2021/04/02 18:19:39;;;;;;;;;;;;;;;10.42;91.46;100679.14;1865594;77;20945;-75
2021/04/02 18:22:08;;;;;;;;;;;;;;;10.35;91.68;100681.77;1865147;77;20205;-75
2021/04/02 18:24:39;;;;;;;;;;;;;;;10.34;91.92;100681.39;1865336;77;20217;-75
2021/04/02 18:27:07;;;;;;;;;;;;;;;10.36;92.18;100683.90;1865177;77;20127;-75
2021/04/02 18:29:35;;;;;;;;;;;;;;;10.39;92.14;100682.40;1865401;77;20209;-80
2021/04/02 18:32:04;;;;;;;;;;;;;;;10.43;92.06;100688.56;1865386;77;21340;-76
2021/04/02 18:34:32;;;;;;;;;;;;;;;10.48;92.02;100684.39;1865532;77;20174;-80
2021/04/02 18:37:00;;;;;;;;;;;;;;;10.50;91.89;100686.41;1865436;77;20221;-83
2021/04/02 18:39:28;;;;;;;;;;;;;;;10.51;91.92;100691.52;1865422;77;20222;-78
2021/04/02 18:41:57;;;;;;;;;;;;;;;10.51;91.91;100685.03;1865550;77;20241;-76
2021/04/02 18:44:25;;;;;;;;;;;;;;;10.48;91.98;100693.02;1865492;77;21159;-78
2021/04/02 18:46:53;;;;;;;;;;;;;;;10.46;92.23;100701.37;1865526;77;20531;-75